ADDS METAR Data INFO
IDs: Format: Raw Decoded Include TAF

Data at: 0739 UTC 23 Jul 2018

KJBR 230653Z AUTO 00000KT 10SM CLR 23/20 A2988 RMK AO2 SLP115 T02280200
KJBR 230553Z AUTO 03005KT 10SM CLR 23/21 A2989 RMK AO2 SLP116 T02330206 10306 20228 403280211 53005
KJBR 230453Z AUTO 03003KT 10SM CLR 23/21 A2988 RMK AO2 SLP113 T02330211
KJBR 230353Z AUTO 04005KT 10SM CLR 23/22 A2987 RMK AO2 SLP112 T02330217
KJBR 230253Z AUTO 06005KT 10SM FEW060 24/22 A2987 RMK AO2 SLP110 T02440222 53018
KJBR 230153Z AUTO 04008KT 10SM BKN070 26/21 A2984 RMK AO2 SLP102 T02560211
KJBR 230053Z AUTO 33003KT 10SM BKN070 29/21 A2983 RMK AO2 SLP096 T02890211
KJBR 222353Z AUTO 32004KT 10SM BKN070 31/21 A2982 RMK AO2 SLP092 T03060206 10328 20300 55001
KJBR 222253Z AUTO 30007KT 10SM CLR 31/19 A2980 RMK AO2 SLP089 T03110194
KJBR 222153Z AUTO 29011KT 10SM BKN060 32/21 A2981 RMK AO2 SLP090 T03220211
KJBR 222053Z AUTO 32007KT 10SM FEW060 32/21 A2982 RMK AO2 SLP094 T03170206 56018
KJBR 221953Z AUTO 33010KT 10SM CLR 31/21 A2983 RMK AO2 SLP098 T03110206
KJBR 221853Z AUTO 31010G17KT 10SM SCT055 31/21 A2985 RMK AO2 SLP104 T03060206
KJBR 221753Z AUTO 33006KT 10SM FEW043 30/21 A2987 RMK AO2 SLP112 T03000206 10300 20228 57008
KJBR 221653Z AUTO 33007KT 280V010 10SM CLR 29/21 A2988 RMK AO2 SLP113 T02890211
KJBR 221553Z AUTO 33006KT 10SM CLR 29/21 A2989 RMK AO2 SLP118 T02890211
KJBR 221453Z AUTO 36008KT 330V030 10SM CLR 28/21 A2990 RMK AO2 SLP120 T02780211 50002
KJBR 221353Z AUTO VRB04KT 10SM CLR 27/21 A2991 RMK AO2 SLP125 T02670211
KJBR 221253Z AUTO 33004KT 10SM CLR 25/21 A2990 RMK AO2 SLP123 T02500211
KJBR 221153Z AUTO 32003KT 10SM CLR 23/21 A2989 RMK AO2 SLP118 T02280206 10261 20211 53010
KJBR 221053Z AUTO 00000KT 10SM CLR 22/20 A2987 RMK AO2 SLP111 T02220200
KJBR 220953Z AUTO 01004KT 10SM CLR 23/19 A2987 RMK AO2 SLP111 T02280194
KJBR 220853Z AUTO 36005KT 10SM CLR 24/19 A2986 RMK AO2 SLP108 T02440194 55002
KJBR 220753Z AUTO 36007KT 10SM CLR 26/19 A2986 RMK AO2 SLP107 T02560194
KJBR 220653Z AUTO 35007KT 10SM CLR 26/19 A2987 RMK AO2 SLP109 T02610194
KJBR 220553Z AUTO VRB06KT 10SM CLR 26/20 A2987 RMK AO2 SLP110 T02610200 10322 20261 403390261 58001
KJBR 220453Z AUTO 34007KT 10SM CLR 27/19 A2987 RMK AO2 SLP110 T02720194
KJBR 220353Z AUTO 34005KT 10SM CLR 28/19 A2987 RMK AO2 SLP111 T02780194
KJBR 220253Z AUTO 36005KT 10SM CLR 28/19 A2987 RMK AO2 SLP111 T02780194 53014
KJBR 220153Z AUTO 32006KT 10SM CLR 29/19 A2985 RMK AO2 SLP105 T02890194
KJBR 220121Z AUTO 31004KT 10SM FEW002 29/19 A2984 RMK AO2 T02940194
KJBR 220053Z AUTO 32005KT 10SM CLR 31/20 A2984 RMK AO2 SLP099 T03060200
KJBR 212353Z AUTO 30005KT 10SM CLR 32/20 A2983 RMK AO2 SLP097 T03220200 10339 20306 56005
KJBR 212253Z AUTO 32010G16KT 10SM CLR 33/19 A2983 RMK AO2 SLP097 T03330194
KJBR 212153Z AUTO 30007KT 10SM CLR 33/21 A2983 RMK AO2 SLP098 T03330211
KJBR 212053Z AUTO 30008G15KT 10SM CLR 33/22 A2984 RMK AO2 SLP101 T03280222 56016
KJBR 211953Z AUTO 25009KT 10SM FEW050 32/24 A2985 RMK AO2 SLP106 T03220239